Terminal Aerodrome Forecast
Issued by NWS Shreveport, LA

Home | Current Version | Previous Version | Text Only | Print | Product List | Glossary On
Versions: 1 2 3 4 5 6 7 8 9 10 11 12 13 14 15 16 17 18 19 20
000
FTUS44 KSHV 040500
TAFLFK
TAF
KLFK 040525Z 0406/0506 17007KT P6SM OVC012
      TEMPO 0406/0407 SCT015
     FM040800 16008KT 5SM BR OVC008
      TEMPO 0410/0414 1/2SM FG VV001
     FM041800 19008KT P6SM VCTS BKN020CB
      TEMPO 0420/0423 3SM TSRA BR OVC010CB
     FM042300 35012KT P6SM -RA OVC012=

USA.gov is the U.S. government's official web portal to all federal, state and local government web resources and services.